createdAt,value
2019-06-20T00:00:43.614Z,23.86
2019-06-20T00:03:12.185Z,23.94
2019-06-20T00:05:40.672Z,23.91
2019-06-20T00:08:09.118Z,23.91
2019-06-20T00:10:37.630Z,23.67
2019-06-20T00:13:06.369Z,23.69
2019-06-20T00:15:35.901Z,23.60
2019-06-20T00:18:04.369Z,23.45
2019-06-20T00:20:32.868Z,23.36
2019-06-20T00:23:01.389Z,23.47
2019-06-20T00:25:30.507Z,23.09
2019-06-20T00:27:58.982Z,23.22
2019-06-20T00:30:27.498Z,23.04
2019-06-20T00:32:55.971Z,23.13
2019-06-20T00:35:24.463Z,23.20
2019-06-20T00:37:52.934Z,23.30
2019-06-20T00:40:21.498Z,23.32
2019-06-20T00:42:49.963Z,22.93
2019-06-20T00:45:20.196Z,22.75
2019-06-20T00:47:48.719Z,23.08
2019-06-20T00:50:17.411Z,23.16
2019-06-20T00:52:45.881Z,22.82
2019-06-20T00:55:14.375Z,22.53
2019-06-20T00:57:42.841Z,22.67
2019-06-20T01:00:11.649Z,22.79
2019-06-20T01:02:40.136Z,22.89
2019-06-20T01:05:09.038Z,22.94
2019-06-20T01:07:37.587Z,22.66
2019-06-20T01:10:08.484Z,22.86
2019-06-20T01:12:36.979Z,22.72
2019-06-20T01:15:07.448Z,22.79
2019-06-20T01:17:36.176Z,22.76
2019-06-20T01:20:06.754Z,22.78
2019-06-20T01:22:35.253Z,22.78
2019-06-20T01:25:05.017Z,22.81
2019-06-20T01:27:33.511Z,22.82
2019-06-20T01:30:01.979Z,22.80
2019-06-20T01:32:30.492Z,22.79
2019-06-20T01:34:58.959Z,22.79
2019-06-20T01:37:27.437Z,22.75
2019-06-20T01:39:55.914Z,22.72
2019-06-20T01:42:24.400Z,22.73
2019-06-20T01:44:52.872Z,22.76
2019-06-20T01:47:21.370Z,22.64
2019-06-20T01:49:49.834Z,22.62
2019-06-20T01:52:18.325Z,22.63
2019-06-20T01:54:46.807Z,22.54
2019-06-20T01:57:15.312Z,22.53
2019-06-20T01:59:43.769Z,22.50
2019-06-20T02:02:12.255Z,22.47
2019-06-20T02:04:40.735Z,22.51
2019-06-20T02:07:09.233Z,22.46
2019-06-20T02:09:37.696Z,22.33
2019-06-20T02:12:06.260Z,22.32
2019-06-20T02:14:34.741Z,22.32
2019-06-20T02:17:03.253Z,22.33
2019-06-20T02:19:31.727Z,22.32
2019-06-20T02:22:00.359Z,22.37
2019-06-20T02:24:28.841Z,22.33
2019-06-20T02:26:57.331Z,22.24
2019-06-20T02:29:25.850Z,22.34
2019-06-20T02:31:54.349Z,22.34
2019-06-20T02:34:22.821Z,22.24
2019-06-20T02:36:51.224Z,22.22
2019-06-20T02:39:19.690Z,22.21
2019-06-20T02:41:48.181Z,22.26
2019-06-20T02:44:29.094Z,21.88
2019-06-20T02:46:46.894Z,21.73
2019-06-20T02:49:15.368Z,21.84
2019-06-20T02:51:44.285Z,21.89
2019-06-20T02:54:12.755Z,21.96
2019-06-20T02:56:41.221Z,21.98
2019-06-20T02:59:09.737Z,21.93
2019-06-20T03:01:38.185Z,21.89
2019-06-20T03:04:06.672Z,21.84
2019-06-20T03:06:35.410Z,21.76
2019-06-20T03:09:05.786Z,21.77
2019-06-20T03:11:34.247Z,21.78
2019-06-20T03:14:02.742Z,21.72
2019-06-20T03:16:31.224Z,21.53
2019-06-20T03:18:59.713Z,21.52
2019-06-20T03:21:28.180Z,21.56
2019-06-20T03:23:56.660Z,21.62
2019-06-20T03:26:25.131Z,21.61
2019-06-20T03:28:53.624Z,21.68
2019-06-20T03:31:22.104Z,21.56
2019-06-20T03:33:50.598Z,21.59
2019-06-20T03:36:19.065Z,21.64
2019-06-20T03:38:47.545Z,21.43
2019-06-20T03:41:16.019Z,21.22
2019-06-20T03:43:44.525Z,21.41
2019-06-20T03:46:12.986Z,21.33
2019-06-20T03:48:41.469Z,21.40
2019-06-20T03:51:10.095Z,21.39
2019-06-20T03:53:38.582Z,21.24
2019-06-20T03:56:07.049Z,21.23
2019-06-20T03:58:35.814Z,21.44
2019-06-20T04:01:04.282Z,21.48
2019-06-20T04:03:32.772Z,21.46
2019-06-20T04:06:01.251Z,21.48
2019-06-20T04:08:29.739Z,21.48
2019-06-20T04:10:58.217Z,21.53
2019-06-20T04:13:26.773Z,21.40
2019-06-20T04:15:55.261Z,21.31
2019-06-20T04:18:23.760Z,21.54
2019-06-20T04:20:52.216Z,21.50
2019-06-20T04:23:20.699Z,21.48
2019-06-20T04:25:49.194Z,21.53
2019-06-20T04:28:17.664Z,21.63
2019-06-20T04:30:46.110Z,21.68
2019-06-20T04:33:14.591Z,21.74
2019-06-20T04:35:43.055Z,21.75
2019-06-20T04:38:11.553Z,21.83
2019-06-20T04:40:40.033Z,21.89
2019-06-20T04:43:08.497Z,21.94
2019-06-20T04:45:38.635Z,21.99
2019-06-20T04:48:07.097Z,22.03
2019-06-20T04:50:35.973Z,22.10
2019-06-20T04:53:04.527Z,22.14
2019-06-20T04:55:33.050Z,22.16
2019-06-20T04:58:01.509Z,22.31
2019-06-20T05:00:29.995Z,22.39
2019-06-20T05:02:58.468Z,22.33
2019-06-20T05:05:26.968Z,22.35
2019-06-20T05:07:55.447Z,22.45
2019-06-20T05:10:23.920Z,22.59
2019-06-20T05:12:55.849Z,22.73
2019-06-20T05:15:22.620Z,22.86
2019-06-20T05:17:51.360Z,22.94
2019-06-20T05:20:19.970Z,22.90
2019-06-20T05:22:48.559Z,23.01
2019-06-20T05:25:17.056Z,23.10
2019-06-20T05:27:45.561Z,23.21
2019-06-20T05:30:14.917Z,23.19
2019-06-20T05:32:43.376Z,23.33
2019-06-20T05:35:12.229Z,23.38
2019-06-20T05:37:40.690Z,23.40
2019-06-20T05:40:10.436Z,23.34
2019-06-20T05:42:38.893Z,23.29
2019-06-20T05:45:08.118Z,23.30
2019-06-20T05:47:36.604Z,23.11
2019-06-20T05:50:11.579Z,23.08
2019-06-20T05:52:40.028Z,23.12
2019-06-20T05:55:08.909Z,23.22
2019-06-20T05:57:37.353Z,23.19
2019-06-20T06:00:09.195Z,23.21
2019-06-20T06:02:40.245Z,23.20
2019-06-20T06:05:09.327Z,23.27
2019-06-20T06:07:37.796Z,23.27
2019-06-20T06:10:07.739Z,23.27
2019-06-20T06:12:52.015Z,23.17
2019-06-20T06:15:21.749Z,23.18
2019-06-20T06:17:50.380Z,23.14
2019-06-20T06:20:20.631Z,23.06
2019-06-20T06:22:49.078Z,22.89
2019-06-20T06:25:17.793Z,22.88
2019-06-20T06:27:46.294Z,22.65
2019-06-20T06:30:15.602Z,22.36
2019-06-20T06:32:44.065Z,21.99
2019-06-20T06:35:13.106Z,21.70
2019-06-20T06:37:41.581Z,21.66
2019-06-20T06:40:11.994Z,22.07
2019-06-20T06:42:40.531Z,22.02
2019-06-20T06:45:11.002Z,21.98
2019-06-20T06:47:39.477Z,21.98
2019-06-20T06:50:08.907Z,21.63
2019-06-20T06:52:37.372Z,21.23
2019-06-20T06:55:06.826Z,21.36
2019-06-20T06:57:35.297Z,21.42
2019-06-20T07:00:09.644Z,21.51
2019-06-20T07:02:38.179Z,21.55
2019-06-20T07:05:07.682Z,21.38
2019-06-20T07:07:36.186Z,21.44
2019-06-20T07:10:08.060Z,21.58
2019-06-20T07:12:36.666Z,21.48
2019-06-20T07:15:09.063Z,21.45
2019-06-20T07:17:37.616Z,21.53
2019-06-20T07:20:07.330Z,21.73
2019-06-20T07:22:36.295Z,21.84
2019-06-20T07:25:07.297Z,21.94
2019-06-20T07:27:35.850Z,22.04
2019-06-20T07:30:06.909Z,22.10
2019-06-20T07:32:35.395Z,22.15
2019-06-20T07:35:06.001Z,21.81
2019-06-20T07:37:34.484Z,21.88
2019-06-20T07:40:04.426Z,21.87
2019-06-20T07:42:32.914Z,21.85
2019-06-20T07:45:01.386Z,22.13
2019-06-20T07:47:29.877Z,22.16
2019-06-20T07:49:58.355Z,22.19
2019-06-20T07:52:26.840Z,22.15
2019-06-20T07:54:55.349Z,22.10
2019-06-20T07:57:23.891Z,22.14
2019-06-20T07:59:52.352Z,22.17
2019-06-20T08:02:20.851Z,22.21
2019-06-20T08:04:49.325Z,22.23
2019-06-20T08:07:17.802Z,22.18
2019-06-20T08:09:46.276Z,22.25
2019-06-20T08:12:14.758Z,22.26
2019-06-20T08:14:43.239Z,22.30
2019-06-20T08:17:11.723Z,22.33
2019-06-20T08:19:40.193Z,22.38
2019-06-20T08:22:08.659Z,22.39
2019-06-20T08:24:37.128Z,22.46
2019-06-20T08:27:06.718Z,22.49
2019-06-20T08:29:35.359Z,22.63
2019-06-20T08:32:04.559Z,22.60
2019-06-20T08:34:33.149Z,22.72
2019-06-20T08:37:02.428Z,22.82
2019-06-20T08:39:31.066Z,23.36
2019-06-20T08:42:00.483Z,23.55
2019-06-20T08:44:29.115Z,23.75
2019-06-20T08:47:00.217Z,24.38
2019-06-20T08:49:27.790Z,25.33
2019-06-20T08:51:57.365Z,25.98
2019-06-20T08:54:25.911Z,26.06
2019-06-20T08:56:56.101Z,27.05
2019-06-20T08:59:25.030Z,27.40
2019-06-20T09:01:56.494Z,27.25
2019-06-20T09:04:23.866Z,26.89
2019-06-20T09:06:55.190Z,26.24
2019-06-20T09:09:22.572Z,25.97
2019-06-20T09:11:51.033Z,25.95
2019-06-20T09:14:19.523Z,25.83
2019-06-20T09:16:48.008Z,25.80
2019-06-20T09:19:16.495Z,25.70
2019-06-20T09:21:44.961Z,25.48
2019-06-20T09:24:13.456Z,25.49
2019-06-20T09:26:41.942Z,25.53
2019-06-20T09:29:10.438Z,25.76
2019-06-20T09:31:38.904Z,25.63
2019-06-20T09:34:07.410Z,25.13
2019-06-20T09:36:35.964Z,25.00
2019-06-20T09:39:06.674Z,24.80
2019-06-20T09:41:35.145Z,24.85
2019-06-20T09:44:03.711Z,25.59
2019-06-20T09:46:32.246Z,25.98
2019-06-20T09:49:00.766Z,25.81
2019-06-20T09:51:29.235Z,25.81
2019-06-20T09:53:58.215Z,25.48
2019-06-20T09:56:26.773Z,25.39
2019-06-20T09:58:55.362Z,25.62
2019-06-20T10:01:23.819Z,25.79
2019-06-20T10:03:52.484Z,25.78
2019-06-20T10:06:21.021Z,25.89
2019-06-20T10:08:50.086Z,25.78
2019-06-20T10:11:18.714Z,25.60
2019-06-20T10:13:48.183Z,25.70
2019-06-20T10:16:16.787Z,27.24
2019-06-20T10:18:46.801Z,27.24
2019-06-20T10:21:15.477Z,28.73
2019-06-20T10:23:46.037Z,28.73
2019-06-20T10:26:14.231Z,28.14
2019-06-20T10:28:42.720Z,28.28
2019-06-20T10:31:11.312Z,28.87
2019-06-20T10:33:39.796Z,28.77
2019-06-20T10:36:08.262Z,29.57
2019-06-20T10:38:36.800Z,29.93
2019-06-20T10:41:05.416Z,27.95
2019-06-20T10:43:33.874Z,28.17
2019-06-20T10:46:02.351Z,27.88
2019-06-20T10:48:31.091Z,28.50
2019-06-20T10:51:17.694Z,27.93
2019-06-20T10:53:47.141Z,27.91
2019-06-20T10:56:15.765Z,27.97
2019-06-20T10:58:44.618Z,28.29
2019-06-20T11:01:13.182Z,28.32
2019-06-20T11:03:41.987Z,28.24
2019-06-20T11:06:10.716Z,28.35
2019-06-20T11:08:40.626Z,28.37
2019-06-20T11:11:09.563Z,27.99
2019-06-20T11:13:39.532Z,27.92
2019-06-20T11:16:08.335Z,27.67
2019-06-20T11:18:38.314Z,27.34
2019-06-20T11:21:07.215Z,27.34
2019-06-20T11:23:36.466Z,27.11
2019-06-20T11:26:06.039Z,27.09
2019-06-20T11:28:34.517Z,27.27
2019-06-20T11:31:03.083Z,27.28
2019-06-20T11:33:31.616Z,27.11
2019-06-20T11:36:00.147Z,27.14
2019-06-20T11:38:28.607Z,27.05
2019-06-20T11:40:57.098Z,27.08
2019-06-20T11:43:25.610Z,27.03
2019-06-20T11:45:55.186Z,27.00
2019-06-20T11:48:23.647Z,27.06
2019-06-20T11:50:52.235Z,26.92
2019-06-20T11:53:20.692Z,26.85
2019-06-20T11:55:49.180Z,26.73
2019-06-20T11:58:17.639Z,26.77
2019-06-20T12:01:02.666Z,26.69
2019-06-20T12:03:16.644Z,26.79
2019-06-20T12:05:47.201Z,26.81
2019-06-20T12:08:15.924Z,26.80
2019-06-20T12:10:45.187Z,26.52
2019-06-20T12:13:13.963Z,26.49
2019-06-20T12:15:42.884Z,26.75
2019-06-20T12:18:11.409Z,26.81
2019-06-20T12:20:42.816Z,26.98
2019-06-20T12:23:11.472Z,26.90
2019-06-20T12:25:42.683Z,26.90
2019-06-20T12:28:11.374Z,26.84
2019-06-20T12:30:41.507Z,26.91
2019-06-20T12:33:10.555Z,26.69
2019-06-20T12:35:39.546Z,26.58
2019-06-20T12:38:09.462Z,26.56
2019-06-20T12:40:39.290Z,26.50
2019-06-20T12:43:08.301Z,26.65
2019-06-20T12:45:36.797Z,26.61
2019-06-20T12:48:05.282Z,26.73
2019-06-20T12:50:33.865Z,26.73
2019-06-20T12:53:02.364Z,26.62
2019-06-20T12:55:30.922Z,26.59
2019-06-20T12:57:59.557Z,26.66
2019-06-20T13:00:29.137Z,26.64
2019-06-20T13:02:57.881Z,26.60
2019-06-20T13:05:27.111Z,26.47
2019-06-20T13:07:55.663Z,26.49
2019-06-20T13:10:24.334Z,26.46
2019-06-20T13:12:52.930Z,26.51
2019-06-20T13:15:22.612Z,26.41
2019-06-20T13:17:51.341Z,26.39
2019-06-20T13:20:20.171Z,26.37
2019-06-20T13:22:49.577Z,26.38
2019-06-20T13:25:18.364Z,26.33
2019-06-20T13:27:47.853Z,26.39
2019-06-20T13:30:17.131Z,26.40
2019-06-20T13:32:47.001Z,26.36
2019-06-20T13:35:16.433Z,26.40
2019-06-20T13:37:45.768Z,26.31
2019-06-20T13:40:16.910Z,26.37
2019-06-20T13:42:46.095Z,26.32
2019-06-20T13:45:23.216Z,26.15
2019-06-20T13:47:52.155Z,26.17
2019-06-20T13:50:22.187Z,26.03
2019-06-20T13:52:51.275Z,26.03
2019-06-20T13:55:20.354Z,25.98
2019-06-20T13:57:49.367Z,25.90
2019-06-20T14:00:20.162Z,25.62
2019-06-20T14:02:49.067Z,25.57
2019-06-20T14:05:18.531Z,25.60
2019-06-20T14:07:51.399Z,25.55
2019-06-20T14:10:19.952Z,25.38
2019-06-20T14:12:48.881Z,25.54
2019-06-20T14:15:18.204Z,25.45
2019-06-20T14:17:47.605Z,25.54
2019-06-20T14:20:17.754Z,25.40
2019-06-20T14:22:46.235Z,25.30
2019-06-20T14:25:15.169Z,25.15
2019-06-20T14:27:43.947Z,25.14
2019-06-20T14:30:13.756Z,25.07
2019-06-20T14:32:43.190Z,24.94
2019-06-20T14:35:12.748Z,24.82
2019-06-20T14:37:43.348Z,24.79
2019-06-20T14:40:12.909Z,24.85
2019-06-20T14:42:42.965Z,25.05
2019-06-20T14:45:12.463Z,24.91
2019-06-20T14:47:40.955Z,24.78
2019-06-20T14:50:10.460Z,24.91
2019-06-20T14:52:39.146Z,24.80
2019-06-20T14:55:08.797Z,24.82
2019-06-20T14:57:37.330Z,24.92
2019-06-20T15:00:08.162Z,24.85
2019-06-20T15:02:38.921Z,25.01
2019-06-20T15:05:15.262Z,25.01
2019-06-20T15:07:45.682Z,25.16
2019-06-20T15:10:15.952Z,25.23
2019-06-20T15:12:45.927Z,25.31
2019-06-20T15:15:16.066Z,25.16
2019-06-20T15:17:46.450Z,25.19
2019-06-20T15:20:15.381Z,25.04
2019-06-20T15:22:46.734Z,25.25
2019-06-20T15:25:15.186Z,25.19
2019-06-20T15:27:47.972Z,25.22
2019-06-20T15:30:17.116Z,25.25
2019-06-20T15:33:00.811Z,25.25
2019-06-20T15:35:17.311Z,25.23
2019-06-20T15:37:46.683Z,25.21
2019-06-20T15:40:16.347Z,25.16
2019-06-20T15:42:44.820Z,25.13
2019-06-20T15:45:14.664Z,25.16
2019-06-20T15:47:43.144Z,25.18
2019-06-20T15:50:13.293Z,25.15
2019-06-20T15:52:41.816Z,25.11
2019-06-20T15:55:12.165Z,25.15
2019-06-20T15:57:41.806Z,25.21
2019-06-20T16:00:12.029Z,25.20
2019-06-20T16:02:40.510Z,25.18
2019-06-20T16:05:09.647Z,25.17
2019-06-20T16:07:38.396Z,25.26
2019-06-20T16:10:08.929Z,25.27
2019-06-20T16:12:37.437Z,25.29
2019-06-20T16:15:09.004Z,25.27
2019-06-20T16:17:37.484Z,25.21
2019-06-20T16:20:06.984Z,25.20
2019-06-20T16:22:35.432Z,25.10
2019-06-20T16:25:05.683Z,25.17
2019-06-20T16:27:34.161Z,25.16
2019-06-20T16:30:02.683Z,25.17
2019-06-20T16:32:31.165Z,25.19
2019-06-20T16:34:59.709Z,25.20
2019-06-20T16:37:28.206Z,25.19
2019-06-20T16:39:56.700Z,25.15
2019-06-20T16:42:25.171Z,25.16
2019-06-20T16:44:53.666Z,25.13
2019-06-20T16:47:22.131Z,25.13
2019-06-20T16:49:50.630Z,25.15
2019-06-20T16:52:19.122Z,25.18
2019-06-20T16:54:47.639Z,25.21
2019-06-20T16:57:16.117Z,25.26
2019-06-20T16:59:44.639Z,25.24
2019-06-20T17:02:13.109Z,25.21
2019-06-20T17:04:41.609Z,25.17
2019-06-20T17:07:10.166Z,25.22
2019-06-20T17:09:38.870Z,25.23
2019-06-20T17:12:10.921Z,25.23
2019-06-20T17:14:37.578Z,25.17
2019-06-20T17:17:06.096Z,25.13
2019-06-20T17:19:34.657Z,25.07
2019-06-20T17:22:03.354Z,25.09
2019-06-20T17:24:31.822Z,25.11
2019-06-20T17:27:00.298Z,25.07
2019-06-20T17:29:30.069Z,25.08
2019-06-20T17:31:58.540Z,25.05
2019-06-20T17:34:27.040Z,25.11
2019-06-20T17:36:55.663Z,25.10
2019-06-20T17:39:24.542Z,25.04
2019-06-20T17:41:55.566Z,24.98
2019-06-20T17:44:23.586Z,24.96
2019-06-20T17:46:52.147Z,24.92
2019-06-20T17:49:20.994Z,24.81
2019-06-20T17:51:49.512Z,24.84
2019-06-20T17:54:17.993Z,24.85
2019-06-20T17:56:46.617Z,24.84
2019-06-20T17:59:15.134Z,24.84
2019-06-20T18:01:43.608Z,24.84
2019-06-20T18:04:14.022Z,24.86
2019-06-20T18:06:44.020Z,24.92
2019-06-20T18:09:12.581Z,24.92
2019-06-20T18:11:41.107Z,24.87
2019-06-20T18:14:09.597Z,24.85
2019-06-20T18:16:38.227Z,24.87
2019-06-20T18:19:06.886Z,24.91
2019-06-20T18:21:35.415Z,24.91
2019-06-20T18:24:04.061Z,24.86
2019-06-20T18:26:32.550Z,24.85
2019-06-20T18:29:01.105Z,24.89
2019-06-20T18:31:29.749Z,24.91
2019-06-20T18:33:58.202Z,24.91
2019-06-20T18:36:26.816Z,24.89
2019-06-20T18:38:55.319Z,24.87
2019-06-20T18:41:23.925Z,24.88
2019-06-20T18:43:52.423Z,24.83
2019-06-20T18:46:20.921Z,24.85
2019-06-20T18:48:49.486Z,24.80
2019-06-20T18:51:17.990Z,24.80
2019-06-20T18:53:46.566Z,24.77
2019-06-20T18:56:15.205Z,24.78
2019-06-20T18:58:43.768Z,24.71
2019-06-20T19:01:12.273Z,24.64
2019-06-20T19:03:40.738Z,24.61
2019-06-20T19:06:09.336Z,24.60
2019-06-20T19:08:37.830Z,24.65
2019-06-20T19:11:06.335Z,24.52
2019-06-20T19:13:34.830Z,24.59
2019-06-20T19:16:03.369Z,24.59
2019-06-20T19:18:32.102Z,24.59
2019-06-20T19:21:00.619Z,24.51
2019-06-20T19:23:29.074Z,24.54
2019-06-20T19:25:57.579Z,24.55
2019-06-20T19:28:26.025Z,24.54
2019-06-20T19:30:54.609Z,24.38
2019-06-20T19:33:23.158Z,24.42
2019-06-20T19:35:51.635Z,24.40
2019-06-20T19:38:20.193Z,24.43
2019-06-20T19:40:50.414Z,24.44
2019-06-20T19:43:19.365Z,24.38
2019-06-20T19:45:47.911Z,24.40
2019-06-20T19:48:16.749Z,24.32
2019-06-20T19:50:45.681Z,24.28
2019-06-20T19:53:14.411Z,24.25
2019-06-20T19:55:43.063Z,24.17
2019-06-20T19:58:11.831Z,24.13
2019-06-20T20:00:40.496Z,24.13
2019-06-20T20:03:09.478Z,24.11
2019-06-20T20:05:38.196Z,24.04
2019-06-20T20:08:08.289Z,24.02
2019-06-20T20:10:42.634Z,23.94
2019-06-20T20:13:11.144Z,23.88
2019-06-20T20:15:39.752Z,23.84
2019-06-20T20:18:08.531Z,23.79
2019-06-20T20:20:37.141Z,23.77
2019-06-20T20:23:05.839Z,23.79
2019-06-20T20:25:34.313Z,23.72
2019-06-20T20:28:02.913Z,23.59
2019-06-20T20:30:31.472Z,23.61
2019-06-20T20:33:01.975Z,23.61
2019-06-20T20:35:35.588Z,23.57
2019-06-20T20:38:01.360Z,23.61
2019-06-20T20:40:29.996Z,23.61
2019-06-20T20:42:58.887Z,23.58
2019-06-20T20:45:27.349Z,23.55
2019-06-20T20:47:55.913Z,23.51
2019-06-20T20:50:25.122Z,23.55
2019-06-20T20:52:53.614Z,23.55
2019-06-20T20:55:22.267Z,23.54
2019-06-20T20:57:50.817Z,23.54
2019-06-20T21:00:24.924Z,23.51
2019-06-20T21:02:54.264Z,23.46
2019-06-20T21:05:22.805Z,23.47
2019-06-20T21:07:51.486Z,23.45
2019-06-20T21:10:20.551Z,23.43
2019-06-20T21:12:49.279Z,23.40
2019-06-20T21:15:19.540Z,23.39
2019-06-20T21:17:48.412Z,23.36
2019-06-20T21:20:17.702Z,23.33
2019-06-20T21:22:46.289Z,23.30
2019-06-20T21:25:15.004Z,23.30
2019-06-20T21:27:43.520Z,23.27
2019-06-20T21:30:13.240Z,23.26
2019-06-20T21:32:41.706Z,23.23
2019-06-20T21:35:11.042Z,23.22
2019-06-20T21:37:39.747Z,23.20
2019-06-20T21:40:08.784Z,23.20
2019-06-20T21:42:37.314Z,23.17
2019-06-20T21:45:07.034Z,23.16
2019-06-20T21:47:35.588Z,23.17
2019-06-20T21:50:08.831Z,23.15
2019-06-20T21:52:37.924Z,23.16
2019-06-20T21:55:07.182Z,23.10
2019-06-20T21:57:35.656Z,23.11
2019-06-20T22:00:23.514Z,23.14
2019-06-20T22:02:51.986Z,23.16
2019-06-20T22:05:20.557Z,23.17
2019-06-20T22:07:49.045Z,23.17
2019-06-20T22:10:17.769Z,23.12
2019-06-20T22:12:46.252Z,23.08
2019-06-20T22:15:16.631Z,23.07
2019-06-20T22:17:45.114Z,23.05
2019-06-20T22:20:14.286Z,23.09
2019-06-20T22:22:42.819Z,22.96
2019-06-20T22:25:12.377Z,22.84
2019-06-20T22:27:40.851Z,22.97
2019-06-20T22:30:11.687Z,23.03
2019-06-20T22:32:40.153Z,22.98
2019-06-20T22:35:09.579Z,22.79
2019-06-20T22:37:38.060Z,22.70
2019-06-20T22:40:07.688Z,22.81
2019-06-20T22:42:36.179Z,22.77
2019-06-20T22:45:09.341Z,22.79
2019-06-20T22:47:38.051Z,22.68
2019-06-20T22:50:07.876Z,22.51
2019-06-20T22:52:36.362Z,22.51
2019-06-20T22:55:08.665Z,22.52
2019-06-20T22:57:37.112Z,22.43
2019-06-20T23:00:09.399Z,22.48
2019-06-20T23:02:38.772Z,22.28
2019-06-20T23:05:08.971Z,22.30
2019-06-20T23:07:37.514Z,22.20
2019-06-20T23:10:10.835Z,22.16
2019-06-20T23:12:37.512Z,22.02
2019-06-20T23:15:07.375Z,22.01
2019-06-20T23:17:35.833Z,22.03
2019-06-20T23:20:06.457Z,21.93
2019-06-20T23:22:34.936Z,21.83
2019-06-20T23:25:05.266Z,21.86
2019-06-20T23:27:33.777Z,21.76
2019-06-20T23:30:02.421Z,21.63
2019-06-20T23:32:30.907Z,21.64
2019-06-20T23:34:59.587Z,21.78
2019-06-20T23:37:28.061Z,21.65
2019-06-20T23:39:56.570Z,21.58
2019-06-20T23:42:25.035Z,21.53
2019-06-20T23:44:53.536Z,21.47
2019-06-20T23:47:22.092Z,21.49
2019-06-20T23:49:50.586Z,21.41
2019-06-20T23:52:23.163Z,21.37
2019-06-20T23:54:51.656Z,21.40
2019-06-20T23:57:20.139Z,21.37
2019-06-20T23:59:48.641Z,21.48
